createdAt,value
2018-05-15T00:00:11.421Z,0
2018-05-15T00:01:11.994Z,0
2018-05-15T00:02:12.567Z,0
2018-05-15T00:03:13.151Z,0
2018-05-15T00:04:13.727Z,0
2018-05-15T00:05:14.300Z,0
2018-05-15T00:06:14.879Z,0
2018-05-15T00:07:15.448Z,0
2018-05-15T00:08:16.022Z,0
2018-05-15T00:09:16.596Z,0
2018-05-15T00:10:17.171Z,0
2018-05-15T00:11:17.744Z,0
2018-05-15T00:12:18.320Z,0
2018-05-15T00:13:18.893Z,0
2018-05-15T00:14:19.465Z,0
2018-05-15T00:15:20.038Z,0
2018-05-15T00:16:20.612Z,0
2018-05-15T00:17:21.185Z,0
2018-05-15T00:18:21.758Z,0
2018-05-15T00:19:22.333Z,0
2018-05-15T00:20:22.905Z,0
2018-05-15T00:21:23.494Z,0
2018-05-15T00:22:24.065Z,0
2018-05-15T00:23:24.637Z,0
2018-05-15T00:24:25.212Z,0
2018-05-15T00:25:25.786Z,0
2018-05-15T00:26:26.358Z,0
2018-05-15T00:27:26.932Z,0
2018-05-15T00:28:27.517Z,0
2018-05-15T00:29:28.090Z,0
2018-05-15T00:30:28.665Z,0
2018-05-15T00:31:29.241Z,0
2018-05-15T00:32:29.812Z,0
2018-05-15T00:33:30.385Z,0
2018-05-15T00:34:30.968Z,0
2018-05-15T00:35:31.544Z,0
2018-05-15T00:36:32.120Z,0
2018-05-15T00:37:32.695Z,0
2018-05-15T00:38:33.268Z,0
2018-05-15T00:39:33.843Z,0
2018-05-15T00:40:34.416Z,0
2018-05-15T00:41:34.990Z,0
2018-05-15T00:42:35.564Z,0
2018-05-15T00:43:36.138Z,0
2018-05-15T00:44:36.711Z,0
2018-05-15T00:45:37.283Z,0
2018-05-15T00:46:37.856Z,0
2018-05-15T00:47:38.444Z,0
2018-05-15T00:48:39.015Z,0
2018-05-15T00:49:39.588Z,0
2018-05-15T00:50:40.164Z,0
2018-05-15T00:51:40.733Z,0
2018-05-15T00:52:41.308Z,0
2018-05-15T00:53:41.881Z,0
2018-05-15T00:54:42.456Z,0
2018-05-15T00:55:43.027Z,0
2018-05-15T00:56:43.602Z,0
2018-05-15T00:57:44.176Z,0
2018-05-15T00:58:44.748Z,0
2018-05-15T00:59:45.324Z,0
2018-05-15T01:00:45.900Z,0
2018-05-15T01:01:46.472Z,0
2018-05-15T01:02:47.046Z,0
2018-05-15T01:03:47.620Z,0
2018-05-15T01:04:48.196Z,0
2018-05-15T01:05:48.768Z,0
2018-05-15T01:06:49.339Z,0
2018-05-15T01:07:49.913Z,0
2018-05-15T01:08:50.486Z,0
2018-05-15T01:09:51.059Z,0
2018-05-15T01:10:51.632Z,0
2018-05-15T01:11:52.205Z,0
2018-05-15T01:12:52.777Z,0
2018-05-15T01:13:53.348Z,0
2018-05-15T01:14:53.933Z,0
2018-05-15T01:15:54.506Z,0
2018-05-15T01:16:55.081Z,0
2018-05-15T01:17:55.653Z,0
2018-05-15T01:18:56.227Z,0
2018-05-15T01:19:56.800Z,0
2018-05-15T01:20:57.378Z,0
2018-05-15T01:21:57.953Z,0
2018-05-15T01:22:58.523Z,0
2018-05-15T01:23:59.096Z,0
2018-05-15T01:24:59.671Z,0
2018-05-15T01:26:00.256Z,0
2018-05-15T01:27:00.832Z,0
2018-05-15T01:28:01.403Z,0
2018-05-15T01:29:01.978Z,0
2018-05-15T01:30:02.549Z,0
2018-05-15T01:31:03.123Z,0
2018-05-15T01:32:03.696Z,0
2018-05-15T01:33:04.272Z,0
2018-05-15T01:34:04.847Z,0
2018-05-15T01:35:05.421Z,0
2018-05-15T01:36:05.993Z,0
2018-05-15T01:37:06.570Z,0
2018-05-15T01:38:07.155Z,0
2018-05-15T01:39:07.729Z,0
2018-05-15T01:40:08.303Z,0
2018-05-15T01:41:08.876Z,0
2018-05-15T01:42:09.451Z,0
2018-05-15T01:43:10.023Z,0
2018-05-15T01:44:10.598Z,0
2018-05-15T01:45:11.170Z,0
2018-05-15T01:46:11.755Z,0
2018-05-15T01:47:12.331Z,0
2018-05-15T01:48:12.914Z,0
2018-05-15T01:49:13.487Z,0
2018-05-15T01:50:14.062Z,0
2018-05-15T01:51:14.652Z,0
2018-05-15T01:52:15.238Z,0
2018-05-15T01:53:15.806Z,0
2018-05-15T01:54:16.379Z,0
2018-05-15T01:55:16.952Z,0
2018-05-15T01:56:17.527Z,0
2018-05-15T01:57:18.101Z,0
2018-05-15T01:58:18.675Z,0
2018-05-15T01:59:19.251Z,0
2018-05-15T02:00:19.825Z,0
2018-05-15T02:01:20.397Z,0
2018-05-15T02:02:20.975Z,0
2018-05-15T02:03:21.545Z,0
2018-05-15T02:04:22.122Z,0
2018-05-15T02:05:22.692Z,0
2018-05-15T02:06:23.265Z,0
2018-05-15T02:07:23.840Z,0
2018-05-15T02:08:24.414Z,0
2018-05-15T02:09:24.992Z,0
2018-05-15T02:10:25.574Z,0
2018-05-15T02:11:26.147Z,0
2018-05-15T02:12:26.722Z,0
2018-05-15T02:13:27.295Z,0
2018-05-15T02:14:27.870Z,0
2018-05-15T02:15:28.443Z,0
2018-05-15T02:16:29.016Z,0
2018-05-15T02:17:29.589Z,0
2018-05-15T02:18:30.162Z,0
2018-05-15T02:19:30.736Z,0
2018-05-15T02:20:31.313Z,0
2018-05-15T02:21:31.896Z,0
2018-05-15T02:22:32.472Z,0
2018-05-15T02:23:33.042Z,0
2018-05-15T02:24:33.615Z,0
2018-05-15T02:25:34.189Z,0
2018-05-15T02:26:34.764Z,0
2018-05-15T02:27:35.337Z,0
2018-05-15T02:28:35.913Z,0
2018-05-15T02:29:36.484Z,0
2018-05-15T02:30:37.132Z,0
2018-05-15T02:31:37.644Z,0
2018-05-15T02:32:38.218Z,0
2018-05-15T02:33:38.793Z,0
2018-05-15T02:34:39.384Z,0
2018-05-15T02:35:39.954Z,0
2018-05-15T02:36:40.529Z,0
2018-05-15T02:37:41.103Z,0
2018-05-15T02:38:41.676Z,0
2018-05-15T02:39:42.248Z,0
2018-05-15T02:40:42.833Z,0
2018-05-15T02:41:43.407Z,0
2018-05-15T02:42:43.980Z,0
2018-05-15T02:43:44.552Z,0
2018-05-15T02:44:45.125Z,0
2018-05-15T02:45:45.698Z,0
2018-05-15T02:46:46.331Z,0
2018-05-15T02:47:46.855Z,0
2018-05-15T02:48:47.429Z,0
2018-05-15T02:49:48.002Z,0
2018-05-15T02:50:48.575Z,0
2018-05-15T02:51:49.149Z,0
2018-05-15T02:52:49.721Z,0
2018-05-15T02:53:50.295Z,0
2018-05-15T02:54:50.869Z,0
2018-05-15T02:55:51.446Z,0
2018-05-15T02:56:52.016Z,0
2018-05-15T02:57:52.588Z,0
2018-05-15T02:58:53.160Z,0
2018-05-15T02:59:53.735Z,0
2018-05-15T03:00:54.308Z,0
2018-05-15T03:01:54.883Z,0
2018-05-15T03:02:55.453Z,0
2018-05-15T03:03:56.027Z,0
2018-05-15T03:04:56.603Z,0
2018-05-15T03:05:57.175Z,0
2018-05-15T03:06:57.750Z,0
2018-05-15T03:07:58.331Z,0
2018-05-15T03:08:58.906Z,0
2018-05-15T03:09:59.480Z,0
2018-05-15T03:11:00.051Z,0
2018-05-15T03:12:00.625Z,0
2018-05-15T03:13:01.199Z,0
2018-05-15T03:14:01.779Z,4
2018-05-15T03:15:02.345Z,0
2018-05-15T03:16:02.929Z,0
2018-05-15T03:17:03.504Z,0
2018-05-15T03:18:04.077Z,4
2018-05-15T03:19:04.651Z,0
2018-05-15T03:20:05.225Z,0
2018-05-15T03:21:05.797Z,4
2018-05-15T03:22:06.370Z,0
2018-05-15T03:23:06.943Z,4
2018-05-15T03:24:07.517Z,4
2018-05-15T03:25:08.092Z,4
2018-05-15T03:26:08.667Z,4
2018-05-15T03:27:09.238Z,4
2018-05-15T03:28:09.813Z,8
2018-05-15T03:29:10.397Z,4
2018-05-15T03:30:10.973Z,4
2018-05-15T03:31:11.545Z,4
2018-05-15T03:32:12.117Z,8
2018-05-15T03:33:12.692Z,12
2018-05-15T03:34:13.265Z,12
2018-05-15T03:35:13.839Z,12
2018-05-15T03:36:14.425Z,12
2018-05-15T03:37:14.998Z,16
2018-05-15T03:38:15.574Z,12
2018-05-15T03:39:16.151Z,16
2018-05-15T03:40:16.725Z,16
2018-05-15T03:41:17.335Z,20
2018-05-15T03:42:17.873Z,20
2018-05-15T03:43:18.448Z,24
2018-05-15T03:44:19.027Z,20
2018-05-15T03:45:19.609Z,24
2018-05-15T03:46:20.184Z,28
2018-05-15T03:47:20.759Z,32
2018-05-15T03:48:21.340Z,32
2018-05-15T03:49:21.914Z,32
2018-05-15T03:50:22.490Z,36
2018-05-15T03:51:23.064Z,40
2018-05-15T03:52:23.641Z,44
2018-05-15T03:53:24.214Z,44
2018-05-15T03:54:24.788Z,48
2018-05-15T03:55:25.360Z,48
2018-05-15T03:56:25.934Z,52
2018-05-15T03:57:26.509Z,52
2018-05-15T03:58:27.084Z,56
2018-05-15T03:59:27.665Z,60
2018-05-15T04:00:28.236Z,60
2018-05-15T04:01:28.809Z,64
2018-05-15T04:02:29.379Z,68
2018-05-15T04:03:29.955Z,68
2018-05-15T04:04:30.530Z,76
2018-05-15T04:05:31.104Z,76
2018-05-15T04:06:31.680Z,80
2018-05-15T04:07:32.252Z,80
2018-05-15T04:08:32.836Z,88
2018-05-15T04:09:33.413Z,88
2018-05-15T04:10:33.990Z,92
2018-05-15T04:11:34.573Z,96
2018-05-15T04:12:35.147Z,96
2018-05-15T04:13:35.724Z,100
2018-05-15T04:14:36.296Z,100
2018-05-15T04:15:36.873Z,108
2018-05-15T04:16:37.446Z,108
2018-05-15T04:17:38.022Z,112
2018-05-15T04:18:38.596Z,116
2018-05-15T04:19:39.171Z,116
2018-05-15T04:20:39.810Z,120
2018-05-15T04:21:40.322Z,124
2018-05-15T04:22:40.897Z,128
2018-05-15T04:23:41.471Z,132
2018-05-15T04:24:42.046Z,132
2018-05-15T04:25:42.626Z,136
2018-05-15T04:26:43.207Z,140
2018-05-15T04:27:43.782Z,144
2018-05-15T04:28:44.359Z,148
2018-05-15T04:29:44.932Z,152
2018-05-15T04:30:45.509Z,156
2018-05-15T04:31:46.084Z,156
2018-05-15T04:32:46.660Z,164
2018-05-15T04:33:47.237Z,164
2018-05-15T04:34:47.824Z,168
2018-05-15T04:35:48.399Z,176
2018-05-15T04:36:48.974Z,180
2018-05-15T04:37:49.549Z,180
2018-05-15T04:38:50.123Z,184
2018-05-15T04:39:50.697Z,192
2018-05-15T04:40:51.273Z,196
2018-05-15T04:41:51.851Z,196
2018-05-15T04:42:52.426Z,200
2018-05-15T04:43:53.053Z,204
2018-05-15T04:44:53.579Z,208
2018-05-15T04:45:54.155Z,212
2018-05-15T04:46:54.745Z,216
2018-05-15T04:47:55.319Z,224
2018-05-15T04:48:55.894Z,228
2018-05-15T04:49:56.470Z,228
2018-05-15T04:50:57.049Z,232
2018-05-15T04:51:57.624Z,236
2018-05-15T04:52:58.212Z,240
2018-05-15T04:53:58.789Z,244
2018-05-15T04:54:59.365Z,248
2018-05-15T04:55:59.942Z,252
2018-05-15T04:57:00.520Z,256
2018-05-15T04:58:01.098Z,260
2018-05-15T04:59:01.671Z,264
2018-05-15T05:00:02.250Z,272
2018-05-15T05:01:02.825Z,272
2018-05-15T05:02:03.447Z,276
2018-05-15T05:03:03.978Z,284
2018-05-15T05:04:04.556Z,284
2018-05-15T05:05:05.130Z,288
2018-05-15T05:06:05.705Z,292
2018-05-15T05:07:06.282Z,292
2018-05-15T05:08:06.858Z,300
2018-05-15T05:09:07.439Z,300
2018-05-15T05:10:08.015Z,304
2018-05-15T05:11:08.590Z,304
2018-05-15T05:12:09.177Z,308
2018-05-15T05:13:09.754Z,312
2018-05-15T05:14:10.331Z,316
2018-05-15T05:15:10.909Z,316
2018-05-15T05:16:11.494Z,324
2018-05-15T05:17:12.072Z,324
2018-05-15T05:18:12.650Z,328
2018-05-15T05:19:13.225Z,328
2018-05-15T05:20:13.801Z,332
2018-05-15T05:21:14.378Z,336
2018-05-15T05:22:14.964Z,340
2018-05-15T05:23:15.542Z,340
2018-05-15T05:24:16.119Z,348
2018-05-15T05:25:16.695Z,344
2018-05-15T05:26:17.271Z,348
2018-05-15T05:27:17.848Z,352
2018-05-15T05:28:18.427Z,356
2018-05-15T05:29:19.006Z,356
2018-05-15T05:30:19.580Z,360
2018-05-15T05:31:20.167Z,360
2018-05-15T05:32:20.754Z,364
2018-05-15T05:33:21.377Z,368
2018-05-15T05:34:21.907Z,368
2018-05-15T05:35:22.486Z,372
2018-05-15T05:36:23.072Z,376
2018-05-15T05:37:23.648Z,372
2018-05-15T05:38:24.226Z,376
2018-05-15T05:39:24.802Z,380
2018-05-15T05:40:25.378Z,384
2018-05-15T05:41:25.955Z,388
2018-05-15T05:42:26.532Z,392
2018-05-15T05:43:27.109Z,392
2018-05-15T05:44:27.686Z,396
2018-05-15T05:45:28.264Z,396
2018-05-15T05:46:28.965Z,400
2018-05-15T05:47:29.427Z,404
2018-05-15T05:48:30.017Z,408
2018-05-15T05:49:30.593Z,412
2018-05-15T05:50:31.172Z,412
2018-05-15T05:51:31.751Z,416
2018-05-15T05:52:32.325Z,420
2018-05-15T05:53:32.903Z,420
2018-05-15T05:54:33.483Z,428
2018-05-15T05:55:34.067Z,428
2018-05-15T05:56:34.647Z,432
2018-05-15T05:57:35.226Z,436
2018-05-15T05:58:35.804Z,440
2018-05-15T05:59:36.382Z,444
2018-05-15T06:00:36.959Z,444
2018-05-15T06:01:37.534Z,448
2018-05-15T06:02:38.109Z,452
2018-05-15T06:03:38.689Z,452
2018-05-15T06:04:39.276Z,456
2018-05-15T06:05:39.855Z,456
2018-05-15T06:06:40.431Z,456
2018-05-15T06:07:41.008Z,460
2018-05-15T06:08:41.591Z,460
2018-05-15T06:09:42.161Z,464
2018-05-15T06:10:42.740Z,464
2018-05-15T06:11:43.316Z,468
2018-05-15T06:12:43.893Z,468
2018-05-15T06:13:44.472Z,472
2018-05-15T06:14:45.049Z,476
2018-05-15T06:15:45.694Z,476
2018-05-15T06:16:46.205Z,480
2018-05-15T06:17:46.782Z,480
2018-05-15T06:18:47.359Z,484
2018-05-15T06:19:47.938Z,484
2018-05-15T06:20:48.566Z,484
2018-05-15T06:21:49.094Z,488
2018-05-15T06:22:49.672Z,488
2018-05-15T06:23:50.248Z,492
2018-05-15T06:24:50.827Z,496
2018-05-15T06:25:51.405Z,496
2018-05-15T06:26:51.984Z,500
2018-05-15T06:27:52.560Z,500
2018-05-15T06:28:53.137Z,500
2018-05-15T06:29:53.716Z,500
2018-05-15T06:30:54.292Z,504
2018-05-15T06:31:54.870Z,508
2018-05-15T06:32:55.449Z,504
2018-05-15T06:33:56.028Z,508
2018-05-15T06:34:56.608Z,512
2018-05-15T06:35:57.186Z,512
2018-05-15T06:36:57.769Z,516
2018-05-15T06:37:58.353Z,516
2018-05-15T06:38:58.934Z,516
2018-05-15T06:39:59.510Z,516
2018-05-15T06:41:00.100Z,520
2018-05-15T06:42:00.679Z,520
2018-05-15T06:43:01.257Z,524
2018-05-15T06:44:01.834Z,524
2018-05-15T06:45:02.414Z,524
2018-05-15T06:46:02.991Z,524
2018-05-15T06:47:03.579Z,524
2018-05-15T06:48:04.164Z,524
2018-05-15T06:49:04.752Z,528
2018-05-15T06:50:05.332Z,528
2018-05-15T06:51:05.907Z,532
2018-05-15T06:52:06.486Z,536
2018-05-15T06:53:07.065Z,536
2018-05-15T06:54:07.644Z,536
2018-05-15T06:55:08.222Z,536
2018-05-15T06:56:08.803Z,536
2018-05-15T06:57:09.382Z,540
2018-05-15T06:58:09.961Z,540
2018-05-15T06:59:10.538Z,544
2018-05-15T07:00:11.118Z,544
2018-05-15T07:01:11.698Z,544
2018-05-15T07:02:12.274Z,548
2018-05-15T07:03:12.853Z,548
2018-05-15T07:04:13.441Z,548
2018-05-15T07:05:14.019Z,552
2018-05-15T07:06:14.608Z,552
2018-05-15T07:07:15.197Z,544
2018-05-15T07:08:15.788Z,548
2018-05-15T07:09:16.366Z,544
2018-05-15T07:10:16.947Z,552
2018-05-15T07:11:17.524Z,548
2018-05-15T07:12:18.104Z,548
2018-05-15T07:13:18.684Z,552
2018-05-15T07:14:19.265Z,552
2018-05-15T07:15:19.840Z,556
2018-05-15T07:16:20.425Z,556
2018-05-15T07:17:20.998Z,556
2018-05-15T07:18:21.588Z,560
2018-05-15T07:19:22.189Z,564
2018-05-15T07:20:22.760Z,564
2018-05-15T07:21:23.338Z,564
2018-05-15T07:22:23.920Z,564
2018-05-15T07:23:24.497Z,568
2018-05-15T07:24:25.077Z,568
2018-05-15T07:25:25.668Z,568
2018-05-15T07:26:26.249Z,572
2018-05-15T07:27:26.863Z,572
2018-05-15T07:28:27.405Z,572
2018-05-15T07:29:27.989Z,576
2018-05-15T07:30:28.565Z,576
2018-05-15T07:31:29.146Z,576
2018-05-15T07:32:29.725Z,580
2018-05-15T07:33:30.317Z,580
2018-05-15T07:34:30.897Z,584
2018-05-15T07:35:31.477Z,584
2018-05-15T07:36:32.057Z,580
2018-05-15T07:37:32.637Z,572
2018-05-15T07:38:33.216Z,584
2018-05-15T07:39:33.795Z,588
2018-05-15T07:40:34.377Z,588
2018-05-15T07:41:34.979Z,588
2018-05-15T07:42:35.546Z,592
2018-05-15T07:43:36.125Z,596
2018-05-15T07:44:36.704Z,600
2018-05-15T07:45:37.295Z,600
2018-05-15T07:46:37.874Z,600
2018-05-15T07:47:38.455Z,600
2018-05-15T07:48:39.035Z,600
2018-05-15T07:49:39.614Z,604
2018-05-15T07:50:40.194Z,604
2018-05-15T07:51:40.774Z,600
2018-05-15T07:52:41.357Z,604
2018-05-15T07:53:41.965Z,608
2018-05-15T07:54:42.529Z,608
2018-05-15T07:55:43.107Z,608
2018-05-15T07:56:43.686Z,616
2018-05-15T07:57:44.266Z,612
2018-05-15T07:58:44.849Z,576
2018-05-15T07:59:45.428Z,616
2018-05-15T08:00:46.008Z,616
2018-05-15T08:01:46.590Z,604
2018-05-15T08:02:47.169Z,612
2018-05-15T08:03:47.748Z,616
2018-05-15T08:04:48.338Z,608
2018-05-15T08:05:48.929Z,616
2018-05-15T08:06:49.508Z,608
2018-05-15T08:07:50.089Z,624
2018-05-15T08:08:50.672Z,628
2018-05-15T08:09:51.249Z,628
2018-05-15T08:10:51.830Z,632
2018-05-15T08:11:52.411Z,632
2018-05-15T08:12:52.990Z,636
2018-05-15T08:13:53.571Z,640
2018-05-15T08:14:54.150Z,644
2018-05-15T08:15:54.732Z,644
2018-05-15T08:16:55.311Z,644
2018-05-15T08:17:55.904Z,648
2018-05-15T08:18:56.485Z,652
2018-05-15T08:19:57.067Z,656
2018-05-15T08:20:57.646Z,656
2018-05-15T08:21:58.227Z,664
2018-05-15T08:22:58.807Z,664
2018-05-15T08:23:59.387Z,668
2018-05-15T08:24:59.983Z,672
2018-05-15T08:26:00.562Z,680
2018-05-15T08:27:01.144Z,684
2018-05-15T08:28:01.828Z,688
2018-05-15T08:29:02.319Z,688
2018-05-15T08:30:02.911Z,684
2018-05-15T08:31:03.504Z,664
2018-05-15T08:32:04.081Z,672
2018-05-15T08:33:04.661Z,648
2018-05-15T08:34:05.240Z,620
2018-05-15T08:35:05.822Z,576
2018-05-15T08:36:06.404Z,632
2018-05-15T08:37:06.985Z,624
2018-05-15T08:38:07.577Z,580
2018-05-15T08:39:08.156Z,476
2018-05-15T08:40:08.736Z,472
2018-05-15T08:41:09.319Z,532
2018-05-15T08:42:09.901Z,700
2018-05-15T08:43:10.481Z,708
2018-05-15T08:44:11.061Z,700
2018-05-15T08:45:11.645Z,680
2018-05-15T08:46:12.235Z,700
2018-05-15T08:47:12.817Z,712
2018-05-15T08:48:13.408Z,700
2018-05-15T08:49:14.005Z,580
2018-05-15T08:50:14.580Z,608
2018-05-15T08:51:15.162Z,652
2018-05-15T08:52:15.745Z,672
2018-05-15T08:53:16.341Z,708
2018-05-15T08:54:16.919Z,616
2018-05-15T08:55:17.503Z,660
2018-05-15T08:56:18.093Z,684
2018-05-15T08:57:18.676Z,712
2018-05-15T08:58:19.265Z,720
2018-05-15T08:59:19.846Z,716
2018-05-15T09:00:20.428Z,716
2018-05-15T09:01:21.008Z,704
2018-05-15T09:02:21.591Z,724
2018-05-15T09:03:22.171Z,720
2018-05-15T09:04:22.751Z,720
2018-05-15T09:05:23.334Z,716
2018-05-15T09:06:23.913Z,712
2018-05-15T09:07:24.500Z,696
2018-05-15T09:08:25.078Z,712
2018-05-15T09:09:25.656Z,700
2018-05-15T09:10:26.239Z,696
2018-05-15T09:11:26.820Z,712
2018-05-15T09:12:27.400Z,712
2018-05-15T09:13:27.985Z,708
2018-05-15T09:14:28.579Z,712
2018-05-15T09:15:29.167Z,708
2018-05-15T09:16:29.749Z,712
2018-05-15T09:17:30.331Z,720
2018-05-15T09:18:30.912Z,724
2018-05-15T09:19:31.493Z,720
2018-05-15T09:20:32.078Z,720
2018-05-15T09:21:32.657Z,720
2018-05-15T09:22:33.238Z,720
2018-05-15T09:23:33.818Z,720
2018-05-15T09:24:34.400Z,724
2018-05-15T09:25:34.981Z,724
2018-05-15T09:26:35.562Z,728
2018-05-15T09:27:36.142Z,728
2018-05-15T09:28:36.724Z,724
2018-05-15T09:29:37.306Z,724
2018-05-15T09:30:37.888Z,728
2018-05-15T09:31:38.474Z,728
2018-05-15T09:32:39.051Z,728
2018-05-15T09:33:39.633Z,732
2018-05-15T09:34:40.213Z,732
2018-05-15T09:35:40.805Z,728
2018-05-15T09:36:41.389Z,728
2018-05-15T09:37:41.970Z,728
2018-05-15T09:38:42.552Z,728
2018-05-15T09:39:43.134Z,728
2018-05-15T09:40:43.760Z,736
2018-05-15T09:41:44.297Z,732
2018-05-15T09:42:44.880Z,720
2018-05-15T09:43:45.461Z,708
2018-05-15T09:44:46.044Z,708
2018-05-15T09:45:46.636Z,720
2018-05-15T09:46:47.322Z,716
2018-05-15T09:47:47.809Z,716
2018-05-15T09:48:48.390Z,732
2018-05-15T09:49:48.971Z,732
2018-05-15T09:50:49.553Z,740
2018-05-15T09:51:50.145Z,664
2018-05-15T09:52:50.730Z,672
2018-05-15T09:53:51.311Z,756
2018-05-15T09:54:51.899Z,748
2018-05-15T09:55:52.476Z,748
2018-05-15T09:56:53.068Z,736
2018-05-15T09:57:53.649Z,756
2018-05-15T09:58:54.232Z,748
2018-05-15T09:59:54.813Z,740
2018-05-15T10:00:55.393Z,748
2018-05-15T10:01:55.973Z,736
2018-05-15T10:02:56.556Z,744
2018-05-15T10:03:57.140Z,740
2018-05-15T10:04:57.733Z,736
2018-05-15T10:05:58.328Z,712
2018-05-15T10:06:58.910Z,704
2018-05-15T10:07:59.509Z,708
2018-05-15T10:09:00.072Z,720
2018-05-15T10:10:00.654Z,732
2018-05-15T10:11:01.237Z,740
2018-05-15T10:12:01.819Z,740
2018-05-15T10:13:02.401Z,744
2018-05-15T10:14:02.990Z,764
2018-05-15T10:15:03.567Z,776
2018-05-15T10:16:04.148Z,756
2018-05-15T10:17:04.733Z,756
2018-05-15T10:18:05.314Z,772
2018-05-15T10:19:05.896Z,788
2018-05-15T10:20:06.561Z,780
2018-05-15T10:21:07.060Z,784
2018-05-15T10:22:07.642Z,796
2018-05-15T10:23:08.224Z,788
2018-05-15T10:24:08.807Z,456
2018-05-15T10:25:09.386Z,548
2018-05-15T10:26:09.969Z,444
2018-05-15T10:27:10.551Z,640
2018-05-15T10:28:11.136Z,712
2018-05-15T10:29:11.724Z,752
2018-05-15T10:30:12.307Z,836
2018-05-15T10:31:12.888Z,844
2018-05-15T10:32:13.474Z,600
2018-05-15T10:33:14.054Z,812
2018-05-15T10:34:14.635Z,832
2018-05-15T10:35:15.219Z,828
2018-05-15T10:36:15.801Z,680
2018-05-15T10:37:16.402Z,752
2018-05-15T10:38:16.978Z,804
2018-05-15T10:39:17.561Z,812
2018-05-15T10:40:18.147Z,808
2018-05-15T10:41:18.725Z,852
2018-05-15T10:42:19.309Z,852
2018-05-15T10:43:19.890Z,824
2018-05-15T10:44:20.473Z,796
2018-05-15T10:45:21.065Z,804
2018-05-15T10:46:21.647Z,800
2018-05-15T10:47:22.228Z,824
2018-05-15T10:48:22.822Z,848
2018-05-15T10:49:23.413Z,844
2018-05-15T10:50:23.997Z,856
2018-05-15T10:51:24.586Z,824
2018-05-15T10:52:25.168Z,812
2018-05-15T10:53:25.749Z,768
2018-05-15T10:54:26.331Z,840
2018-05-15T10:55:26.915Z,844
2018-05-15T10:56:27.498Z,868
2018-05-15T10:57:28.080Z,876
2018-05-15T10:58:28.668Z,876
2018-05-15T10:59:29.248Z,888
2018-05-15T11:00:29.828Z,896
2018-05-15T11:01:30.413Z,912
2018-05-15T11:02:30.995Z,928
2018-05-15T11:03:31.577Z,928
2018-05-15T11:04:32.157Z,920
2018-05-15T11:05:32.742Z,896
2018-05-15T11:06:33.331Z,936
2018-05-15T11:07:33.914Z,940
2018-05-15T11:08:34.507Z,928
2018-05-15T11:09:35.090Z,732
2018-05-15T11:10:35.673Z,932
2018-05-15T11:11:36.265Z,940
2018-05-15T11:12:36.929Z,956
2018-05-15T11:13:37.438Z,944
2018-05-15T11:14:38.021Z,948
2018-05-15T11:15:38.604Z,952
2018-05-15T11:16:39.197Z,948
2018-05-15T11:17:39.782Z,880
2018-05-15T11:18:40.396Z,740
2018-05-15T11:19:40.947Z,908
2018-05-15T11:20:41.531Z,932
2018-05-15T11:21:42.113Z,920
2018-05-15T11:22:42.693Z,948
2018-05-15T11:23:43.277Z,960
2018-05-15T11:24:43.878Z,976
2018-05-15T11:25:44.454Z,988
2018-05-15T11:26:45.037Z,984
2018-05-15T11:27:45.619Z,988
2018-05-15T11:28:46.214Z,1004
2018-05-15T11:29:46.805Z,1016
2018-05-15T11:30:47.381Z,1024
2018-05-15T11:31:47.983Z,1020
2018-05-15T11:32:48.547Z,1036
2018-05-15T11:33:49.130Z,1036
2018-05-15T11:34:49.715Z,1032
2018-05-15T11:35:50.301Z,1040
2018-05-15T11:36:50.898Z,1056
2018-05-15T11:37:51.478Z,1052
2018-05-15T11:38:52.072Z,988
2018-05-15T11:39:52.655Z,840
2018-05-15T11:40:53.238Z,688
2018-05-15T11:41:53.860Z,956
2018-05-15T11:42:54.411Z,1004
2018-05-15T11:43:54.995Z,1032
2018-05-15T11:44:55.579Z,1028
2018-05-15T11:45:56.162Z,1028
2018-05-15T11:46:56.750Z,1012
2018-05-15T11:47:57.497Z,1012
2018-05-15T11:48:58.540Z,1016
2018-05-15T11:49:59.414Z,1008
2018-05-15T11:50:59.838Z,1008
2018-05-15T11:52:00.610Z,1004
2018-05-15T11:53:00.818Z,920
2018-05-15T11:54:00.851Z,920
2018-05-15T11:55:01.420Z,988
2018-05-15T11:56:02.034Z,980
2018-05-15T11:57:02.585Z,992
2018-05-15T11:58:03.195Z,992
2018-05-15T11:59:03.752Z,992
2018-05-15T12:00:04.413Z,992
2018-05-15T12:01:04.918Z,996
2018-05-15T12:02:05.499Z,980
2018-05-15T12:03:06.081Z,960
2018-05-15T12:04:06.717Z,952
2018-05-15T12:05:07.260Z,976
2018-05-15T12:06:07.841Z,960
2018-05-15T12:07:08.422Z,960
2018-05-15T12:08:09.118Z,968
2018-05-15T12:09:09.658Z,976
2018-05-15T12:10:10.189Z,968
2018-05-15T12:11:10.770Z,976
2018-05-15T12:12:11.356Z,992
2018-05-15T12:13:11.945Z,988
2018-05-15T12:14:12.535Z,976
2018-05-15T12:15:13.118Z,972
2018-05-15T12:16:13.778Z,976
2018-05-15T12:17:14.291Z,972
2018-05-15T12:18:14.864Z,980
2018-05-15T12:19:15.448Z,964
2018-05-15T12:20:16.033Z,972
2018-05-15T12:21:16.614Z,968
2018-05-15T12:22:17.197Z,988
2018-05-15T12:23:17.781Z,996
2018-05-15T12:24:18.364Z,1000
2018-05-15T12:25:18.949Z,1012
2018-05-15T12:26:19.535Z,1020
2018-05-15T12:27:20.124Z,1012
2018-05-15T12:28:20.713Z,1004
2018-05-15T12:29:21.295Z,1008
2018-05-15T12:30:21.882Z,984
2018-05-15T12:31:22.463Z,1016
2018-05-15T12:32:23.050Z,1028
2018-05-15T12:33:23.631Z,1024
2018-05-15T12:34:24.216Z,1008
2018-05-15T12:35:24.811Z,1020
2018-05-15T12:36:25.397Z,1040
2018-05-15T12:37:25.989Z,1040
2018-05-15T12:38:26.572Z,1044
2018-05-15T12:39:27.166Z,1040
2018-05-15T12:40:27.742Z,1052
2018-05-15T12:41:28.357Z,1056
2018-05-15T12:42:28.921Z,1072
2018-05-15T12:43:29.514Z,1088
2018-05-15T12:44:30.101Z,1112
2018-05-15T12:45:30.681Z,1116
2018-05-15T12:46:31.266Z,1128
2018-05-15T12:47:31.850Z,1140
2018-05-15T12:48:32.441Z,1132
2018-05-15T12:49:33.018Z,1148
2018-05-15T12:50:33.603Z,1184
2018-05-15T12:51:34.185Z,1184
2018-05-15T12:52:34.768Z,1192
2018-05-15T12:53:35.355Z,1180
2018-05-15T12:54:35.939Z,1116
2018-05-15T12:55:36.521Z,1156
2018-05-15T12:56:37.117Z,1160
2018-05-15T12:57:37.702Z,1160
2018-05-15T12:58:38.285Z,1172
2018-05-15T12:59:38.869Z,1168
2018-05-15T13:00:39.463Z,1180
2018-05-15T13:01:40.084Z,1196
2018-05-15T13:02:40.640Z,1184
2018-05-15T13:03:41.225Z,1192
2018-05-15T13:04:41.811Z,1196
2018-05-15T13:05:42.406Z,1220
2018-05-15T13:06:42.988Z,1220
2018-05-15T13:07:43.571Z,1220
2018-05-15T13:08:44.156Z,1096
2018-05-15T13:09:44.738Z,1184
2018-05-15T13:10:45.321Z,1188
2018-05-15T13:11:45.904Z,1208
2018-05-15T13:12:46.487Z,1208
2018-05-15T13:13:47.070Z,1220
2018-05-15T13:14:47.654Z,1220
2018-05-15T13:15:48.239Z,1228
2018-05-15T13:16:48.824Z,1204
2018-05-15T13:17:49.407Z,1188
2018-05-15T13:18:50.001Z,1204
2018-05-15T13:19:50.586Z,1188
2018-05-15T13:20:51.170Z,1172
2018-05-15T13:21:51.756Z,1164
2018-05-15T13:22:52.340Z,1192
2018-05-15T13:23:52.924Z,1208
2018-05-15T13:24:53.509Z,1188
2018-05-15T13:25:54.091Z,1172
2018-05-15T13:26:54.675Z,1176
2018-05-15T13:27:55.260Z,1196
2018-05-15T13:28:55.843Z,1212
2018-05-15T13:29:56.510Z,1208
2018-05-15T13:30:57.018Z,1208
2018-05-15T13:31:57.613Z,1216
2018-05-15T13:32:58.195Z,1216
2018-05-15T13:33:58.780Z,1228
2018-05-15T13:34:59.373Z,1244
2018-05-15T13:35:59.957Z,1236
2018-05-15T13:37:00.552Z,1240
2018-05-15T13:38:01.145Z,1244
2018-05-15T13:39:01.817Z,1252
2018-05-15T13:40:02.313Z,1244
2018-05-15T13:41:02.916Z,1256
2018-05-15T13:42:03.492Z,1256
2018-05-15T13:43:04.076Z,1260
2018-05-15T13:44:04.661Z,1260
2018-05-15T13:45:05.246Z,1260
2018-05-15T13:46:05.832Z,1256
2018-05-15T13:47:06.412Z,1212
2018-05-15T13:48:07.008Z,1232
2018-05-15T13:49:07.594Z,1248
2018-05-15T13:50:08.189Z,1268
2018-05-15T13:51:08.783Z,1232
2018-05-15T13:52:09.367Z,1236
2018-05-15T13:53:09.951Z,1240
2018-05-15T13:54:10.535Z,1252
2018-05-15T13:55:11.118Z,1248
2018-05-15T13:56:11.703Z,1272
2018-05-15T13:57:12.285Z,1256
2018-05-15T13:58:12.869Z,1252
2018-05-15T13:59:13.454Z,1256
2018-05-15T14:00:14.039Z,1280
2018-05-15T14:01:14.622Z,1324
2018-05-15T14:02:15.208Z,1344
2018-05-15T14:03:15.791Z,1360
2018-05-15T14:04:16.378Z,1380
2018-05-15T14:05:16.962Z,1388